createdAt,value
2019-02-26T00:01:55.143Z,19.07
2019-02-26T00:04:27.280Z,14.63
2019-02-26T00:06:58.030Z,12.93
2019-02-26T00:09:30.506Z,15.50
2019-02-26T00:12:00.083Z,17.60
2019-02-26T00:14:30.407Z,14.83
2019-02-26T00:16:59.709Z,10.57
2019-02-26T00:19:28.942Z,12.30
2019-02-26T00:21:58.143Z,13.63
2019-02-26T00:24:30.570Z,14.87
2019-02-26T00:26:59.327Z,15.23
2019-02-26T00:29:29.923Z,15.63
2019-02-26T00:32:00.111Z,17.00
2019-02-26T00:34:30.525Z,15.93
2019-02-26T00:37:01.785Z,16.67
2019-02-26T00:39:31.999Z,16.07
2019-02-26T00:42:02.747Z,14.87
2019-02-26T00:44:35.257Z,16.77
2019-02-26T00:47:06.311Z,14.53
2019-02-26T00:49:35.983Z,18.80
2019-02-26T00:52:06.403Z,16.00
2019-02-26T00:54:37.441Z,12.27
2019-02-26T00:57:08.702Z,14.73
2019-02-26T00:59:38.791Z,14.10
2019-02-26T01:02:09.754Z,12.50
2019-02-26T01:04:41.378Z,11.20
2019-02-26T01:07:11.250Z,11.83
2019-02-26T01:09:41.137Z,12.63
2019-02-26T01:12:11.809Z,11.20
2019-02-26T01:14:41.844Z,12.13
2019-02-26T01:17:14.865Z,10.93
2019-02-26T01:19:44.278Z,19.80
2019-02-26T01:22:14.221Z,14.00
2019-02-26T01:24:44.028Z,13.57
2019-02-26T01:27:14.177Z,9.67
2019-02-26T01:29:44.533Z,9.97
2019-02-26T01:32:17.560Z,8.30
2019-02-26T01:34:47.817Z,8.93
2019-02-26T01:37:17.977Z,12.17
2019-02-26T01:39:50.063Z,11.10
2019-02-26T01:42:24.254Z,7.83
2019-02-26T01:44:50.969Z,8.73
2019-02-26T01:47:21.877Z,10.23
2019-02-26T01:49:52.366Z,7.03
2019-02-26T01:52:21.818Z,8.93
2019-02-26T01:54:51.754Z,7.53
2019-02-26T01:57:21.978Z,12.17
2019-02-26T01:59:51.704Z,10.57
2019-02-26T02:02:24.787Z,6.80
2019-02-26T02:04:52.597Z,6.70
2019-02-26T02:07:25.947Z,6.70
2019-02-26T02:09:55.647Z,7.77
2019-02-26T02:12:29.519Z,7.73
2019-02-26T02:14:57.069Z,8.03
2019-02-26T02:17:28.689Z,7.97
2019-02-26T02:19:57.841Z,5.93
2019-02-26T02:22:27.072Z,7.63
2019-02-26T02:24:56.278Z,10.53
2019-02-26T02:27:28.121Z,8.63
2019-02-26T02:29:57.778Z,9.37
2019-02-26T02:32:29.650Z,9.27
2019-02-26T02:35:03.446Z,9.10
2019-02-26T02:37:31.821Z,9.00
2019-02-26T02:40:00.982Z,11.40
2019-02-26T02:42:30.939Z,10.37
2019-02-26T02:45:00.238Z,9.87
2019-02-26T02:47:31.650Z,7.90
2019-02-26T02:50:02.993Z,8.80
2019-02-26T02:52:35.136Z,9.93
2019-02-26T02:55:04.584Z,9.47
2019-02-26T02:57:35.733Z,10.00
2019-02-26T03:00:08.542Z,10.50
2019-02-26T03:02:42.858Z,10.93
2019-02-26T03:05:10.132Z,9.77
2019-02-26T03:07:42.045Z,7.70
2019-02-26T03:10:12.139Z,10.77
2019-02-26T03:12:44.090Z,7.47
2019-02-26T03:15:13.818Z,7.03
2019-02-26T03:17:43.105Z,9.67
2019-02-26T03:20:12.427Z,8.07
2019-02-26T03:22:46.119Z,6.27
2019-02-26T03:25:14.909Z,7.40
2019-02-26T03:27:44.766Z,6.53
2019-02-26T03:30:26.525Z,8.23
2019-02-26T03:32:52.148Z,7.67
2019-02-26T03:35:23.042Z,7.97
2019-02-26T03:37:54.525Z,10.63
2019-02-26T03:40:24.214Z,9.70
2019-02-26T03:42:54.497Z,6.73
2019-02-26T03:45:25.252Z,7.77
2019-02-26T03:47:55.456Z,7.73
2019-02-26T03:50:27.166Z,6.93
2019-02-26T03:52:56.598Z,8.00
2019-02-26T03:55:26.577Z,7.33
2019-02-26T03:57:57.133Z,8.70
2019-02-26T04:00:27.568Z,5.13
2019-02-26T04:02:57.914Z,6.17
2019-02-26T04:05:27.235Z,6.70
2019-02-26T04:07:59.525Z,9.17
2019-02-26T04:10:28.029Z,6.07
2019-02-26T04:12:58.207Z,7.63
2019-02-26T04:15:31.025Z,6.27
2019-02-26T04:17:59.117Z,8.73
2019-02-26T04:20:28.949Z,9.40
2019-02-26T04:22:58.947Z,7.80
2019-02-26T04:25:39.797Z,8.43
2019-02-26T04:28:13.098Z,5.60
2019-02-26T04:31:16.817Z,6.83
2019-02-26T04:34:34.153Z,7.83
2019-02-26T04:37:44.249Z,9.23
2019-02-26T04:40:57.624Z,5.93
2019-02-26T04:43:41.949Z,4.63
2019-02-26T04:46:45.229Z,5.70
2019-02-26T04:49:14.760Z,4.37
2019-02-26T04:51:45.041Z,7.53
2019-02-26T04:54:21.150Z,5.77
2019-02-26T04:56:48.101Z,5.60
2019-02-26T04:59:17.738Z,4.60
2019-02-26T05:01:49.090Z,4.80
2019-02-26T05:04:18.725Z,6.80
2019-02-26T05:06:48.645Z,5.97
2019-02-26T05:09:17.930Z,5.20
2019-02-26T05:11:47.769Z,5.33
2019-02-26T05:14:22.927Z,5.23
2019-02-26T05:16:49.444Z,6.17
2019-02-26T05:19:21.502Z,5.27
2019-02-26T05:21:50.195Z,3.63
2019-02-26T05:24:21.823Z,4.27
2019-02-26T05:26:50.384Z,4.93
2019-02-26T05:29:19.524Z,6.17
2019-02-26T05:31:48.877Z,6.40
2019-02-26T05:34:20.627Z,5.43
2019-02-26T05:36:48.916Z,5.67
2019-02-26T05:39:21.059Z,11.20
2019-02-26T05:41:52.256Z,7.03
2019-02-26T05:44:20.826Z,8.07
2019-02-26T05:46:52.638Z,5.57
2019-02-26T05:49:21.557Z,6.40
2019-02-26T05:51:53.331Z,5.33
2019-02-26T05:54:24.374Z,7.27
2019-02-26T05:56:53.983Z,6.90
2019-02-26T05:59:23.941Z,6.10
2019-02-26T06:01:55.936Z,7.20
2019-02-26T06:04:24.744Z,9.67
2019-02-26T06:06:56.383Z,7.03
2019-02-26T06:09:29.869Z,10.90
2019-02-26T06:11:57.796Z,6.30
2019-02-26T06:14:28.155Z,6.30
2019-02-26T06:16:59.048Z,9.00
2019-02-26T06:19:45.183Z,7.63
2019-02-26T06:22:17.312Z,9.07
2019-02-26T06:24:46.010Z,5.47
2019-02-26T06:27:18.967Z,9.20
2019-02-26T06:29:47.122Z,8.47
2019-02-26T06:32:16.588Z,10.73
2019-02-26T06:34:45.785Z,7.33
2019-02-26T06:37:18.208Z,7.13
2019-02-26T06:39:50.574Z,6.17
2019-02-26T06:42:18.404Z,9.60
2019-02-26T06:44:49.436Z,10.37
2019-02-26T06:47:20.958Z,8.83
2019-02-26T06:49:52.575Z,8.90
2019-02-26T06:52:21.542Z,11.53
2019-02-26T06:54:54.711Z,8.67
2019-02-26T06:57:22.492Z,8.57
2019-02-26T06:59:55.141Z,12.47
2019-02-26T07:02:28.285Z,9.93
2019-02-26T07:04:55.593Z,9.70
2019-02-26T07:07:25.557Z,14.70
2019-02-26T07:09:57.494Z,9.73
2019-02-26T07:12:26.560Z,7.73
2019-02-26T07:14:57.958Z,11.93
2019-02-26T07:17:26.887Z,9.20
2019-02-26T07:19:58.447Z,13.80
2019-02-26T07:22:29.110Z,8.27
2019-02-26T07:24:59.259Z,10.37
2019-02-26T07:27:31.392Z,8.87
2019-02-26T07:30:00.747Z,7.23
2019-02-26T07:32:30.035Z,15.67
2019-02-26T07:34:59.885Z,14.73
2019-02-26T07:37:31.460Z,14.10
2019-02-26T07:40:03.251Z,15.57
2019-02-26T07:42:36.645Z,8.53
2019-02-26T07:45:14.269Z,9.07
2019-02-26T07:47:36.400Z,8.83
2019-02-26T07:50:06.794Z,7.97
2019-02-26T07:52:37.021Z,6.93
2019-02-26T07:55:09.177Z,7.13
2019-02-26T07:57:43.619Z,7.67
2019-02-26T08:00:15.366Z,8.27
2019-02-26T08:02:45.278Z,9.43
2019-02-26T08:05:17.029Z,15.50
2019-02-26T08:07:48.085Z,7.53
2019-02-26T08:10:19.425Z,6.07
2019-02-26T08:12:48.571Z,8.47
2019-02-26T08:15:17.889Z,11.10
2019-02-26T08:17:50.194Z,4.70
2019-02-26T08:20:18.478Z,6.40
2019-02-26T08:22:51.408Z,11.73
2019-02-26T08:25:20.989Z,9.07
2019-02-26T08:27:52.179Z,9.27
2019-02-26T08:30:24.205Z,10.53
2019-02-26T08:32:56.098Z,5.10
2019-02-26T08:35:25.794Z,10.33
2019-02-26T08:37:55.710Z,6.37
2019-02-26T08:40:25.678Z,6.53
2019-02-26T08:42:54.977Z,6.20
2019-02-26T08:45:25.837Z,7.67
2019-02-26T08:47:55.377Z,7.33
2019-02-26T08:50:28.496Z,5.00
2019-02-26T08:52:58.431Z,6.37
2019-02-26T08:55:27.733Z,7.53
2019-02-26T08:57:56.876Z,7.93
2019-02-26T09:00:26.830Z,10.73
2019-02-26T09:02:56.788Z,12.10
2019-02-26T09:05:28.252Z,5.00
2019-02-26T09:07:57.014Z,7.63
2019-02-26T09:10:26.251Z,5.93
2019-02-26T09:12:56.020Z,8.67
2019-02-26T09:15:25.960Z,5.40
2019-02-26T09:17:55.294Z,5.63
2019-02-26T09:20:24.653Z,5.10
2019-02-26T09:22:56.270Z,8.63
2019-02-26T09:25:28.171Z,6.63
2019-02-26T09:27:55.801Z,8.30
2019-02-26T09:30:24.953Z,6.37
2019-02-26T09:32:54.836Z,4.37
2019-02-26T09:35:28.287Z,10.27
2019-02-26T09:38:00.085Z,5.53
2019-02-26T09:40:29.220Z,14.33
2019-02-26T09:43:00.099Z,8.93
2019-02-26T09:45:30.366Z,10.43
2019-02-26T09:48:01.276Z,10.77
2019-02-26T09:50:31.294Z,7.50
2019-02-26T09:53:01.251Z,12.80
2019-02-26T09:55:30.844Z,11.00
2019-02-26T09:58:00.050Z,8.60
2019-02-26T10:00:29.690Z,6.30
2019-02-26T10:02:59.115Z,6.67
2019-02-26T10:05:28.557Z,8.13
2019-02-26T10:07:59.890Z,9.97
2019-02-26T10:10:31.230Z,10.33
2019-02-26T10:13:02.921Z,7.27
2019-02-26T10:15:32.253Z,7.00
2019-02-26T10:18:04.843Z,12.50
2019-02-26T10:20:34.344Z,9.20
2019-02-26T10:23:06.396Z,5.73
2019-02-26T10:25:38.585Z,10.87
2019-02-26T10:28:09.644Z,9.43
2019-02-26T10:30:41.597Z,8.63
2019-02-26T10:33:10.216Z,6.20
2019-02-26T10:35:41.982Z,8.23
2019-02-26T10:38:11.723Z,10.30
2019-02-26T10:40:52.873Z,11.47
2019-02-26T10:43:12.008Z,9.63
2019-02-26T10:45:44.657Z,5.47
2019-02-26T10:48:15.620Z,7.93
2019-02-26T10:50:46.963Z,5.17
2019-02-26T10:53:19.353Z,4.77
2019-02-26T10:55:46.983Z,7.70
2019-02-26T10:58:16.998Z,4.97
2019-02-26T11:00:50.644Z,6.67
2019-02-26T11:03:20.269Z,5.33
2019-02-26T11:05:52.188Z,9.50
2019-02-26T11:08:23.658Z,6.13
2019-02-26T11:10:52.450Z,6.43
2019-02-26T11:13:25.359Z,5.57
2019-02-26T11:15:56.666Z,5.93
2019-02-26T11:18:25.026Z,8.83
2019-02-26T11:20:56.123Z,7.67
2019-02-26T11:23:31.021Z,7.47
2019-02-26T11:25:57.034Z,12.37
2019-02-26T11:28:29.743Z,8.70
2019-02-26T11:30:57.711Z,7.77
2019-02-26T11:33:27.037Z,5.97
2019-02-26T11:35:56.812Z,8.27
2019-02-26T11:38:26.802Z,7.73
2019-02-26T11:40:56.138Z,9.27
2019-02-26T11:43:28.968Z,15.87
2019-02-26T11:45:59.087Z,7.47
2019-02-26T11:48:32.707Z,6.90
2019-02-26T11:51:01.491Z,6.37
2019-02-26T11:53:30.953Z,10.47
2019-02-26T11:56:02.073Z,5.07
2019-02-26T11:58:31.766Z,4.70
2019-02-26T12:01:03.081Z,10.30
2019-02-26T12:03:36.161Z,4.30
2019-02-26T12:06:06.804Z,6.33
2019-02-26T12:08:37.120Z,7.53
2019-02-26T12:11:11.240Z,5.07
2019-02-26T12:13:39.523Z,5.67
2019-02-26T12:16:09.681Z,4.83
2019-02-26T12:18:41.494Z,3.63
2019-02-26T12:21:12.867Z,5.27
2019-02-26T12:23:44.153Z,5.07
2019-02-26T12:26:13.693Z,3.33
2019-02-26T12:28:44.050Z,5.23
2019-02-26T12:31:13.518Z,3.63
2019-02-26T12:33:43.359Z,3.13
2019-02-26T12:36:13.230Z,3.77
2019-02-26T12:38:42.573Z,4.63
2019-02-26T12:41:15.589Z,3.87
2019-02-26T12:43:46.353Z,3.40
2019-02-26T12:46:15.768Z,3.90
2019-02-26T12:48:47.727Z,5.17
2019-02-26T12:51:16.483Z,5.13
2019-02-26T12:53:49.200Z,3.17
2019-02-26T12:56:17.453Z,4.47
2019-02-26T12:58:48.474Z,5.00
2019-02-26T13:01:18.254Z,5.53
2019-02-26T13:03:53.884Z,3.33
2019-02-26T13:06:19.487Z,3.63
2019-02-26T13:08:50.655Z,7.07
2019-02-26T13:11:21.113Z,3.27
2019-02-26T13:13:53.355Z,4.13
2019-02-26T13:16:21.821Z,3.50
2019-02-26T13:21:23.185Z,3.47
2019-02-26T13:23:52.459Z,5.83
2019-02-26T13:26:22.442Z,2.33
2019-02-26T13:28:55.492Z,2.10
2019-02-26T13:31:23.581Z,3.87
2019-02-26T13:33:52.829Z,2.93
2019-02-26T13:36:22.758Z,3.70
2019-02-26T13:38:52.538Z,4.53
2019-02-26T13:41:29.609Z,7.50
2019-02-26T13:43:52.697Z,7.53
2019-02-26T13:46:22.377Z,3.97
2019-02-26T13:48:51.606Z,4.60
2019-02-26T13:51:20.869Z,7.00
2019-02-26T13:53:50.211Z,6.23
2019-02-26T13:56:19.590Z,5.42
2019-02-26T13:58:49.502Z,3.70
2019-02-26T14:01:19.863Z,5.50
2019-02-26T14:03:49.845Z,6.00
2019-02-26T14:06:19.793Z,4.40
2019-02-26T14:08:49.108Z,3.47
2019-02-26T14:11:18.973Z,3.00
2019-02-26T14:13:48.310Z,3.40
2019-02-26T14:16:17.555Z,2.83
2019-02-26T14:18:48.227Z,3.57
2019-02-26T14:21:17.710Z,4.27
2019-02-26T14:23:46.954Z,3.47
2019-02-26T14:26:16.177Z,3.13
2019-02-26T14:28:46.009Z,2.67
2019-02-26T14:31:15.953Z,3.60
2019-02-26T14:33:45.287Z,5.97
2019-02-26T14:36:15.297Z,5.93
2019-02-26T14:38:45.405Z,2.83
2019-02-26T14:41:15.547Z,3.50
2019-02-26T14:43:45.086Z,4.00
2019-02-26T14:46:15.001Z,6.40
2019-02-26T14:48:44.323Z,7.73
2019-02-26T14:51:13.553Z,5.37
2019-02-26T14:53:43.302Z,4.67
2019-02-26T14:56:13.266Z,4.53
2019-02-26T14:58:43.193Z,4.30
2019-02-26T15:01:13.112Z,4.23
2019-02-26T15:03:43.070Z,3.87
2019-02-26T15:06:13.334Z,4.00
2019-02-26T15:08:43.299Z,4.27
2019-02-26T15:11:13.235Z,4.67
2019-02-26T15:13:43.156Z,6.27
2019-02-26T15:16:13.286Z,8.00
2019-02-26T15:18:42.634Z,8.30
2019-02-26T15:21:12.563Z,4.23
2019-02-26T15:23:41.869Z,8.43
2019-02-26T15:26:11.761Z,5.77
2019-02-26T15:28:41.990Z,6.10
2019-02-26T15:31:12.110Z,6.43
2019-02-26T15:33:41.396Z,5.20
2019-02-26T15:36:10.834Z,5.43
2019-02-26T15:38:40.598Z,5.87
2019-02-26T15:41:10.712Z,4.30
2019-02-26T15:43:40.433Z,3.97
2019-02-26T15:46:10.257Z,5.27
2019-02-26T15:48:40.320Z,5.87
2019-02-26T15:51:14.296Z,4.53
2019-02-26T15:53:42.111Z,6.70
2019-02-26T15:56:13.842Z,5.90
2019-02-26T15:58:43.166Z,3.60
2019-02-26T16:01:15.191Z,4.87
2019-02-26T16:03:44.076Z,7.97
2019-02-26T16:06:17.089Z,5.20
2019-02-26T16:08:47.035Z,4.63
2019-02-26T16:11:16.329Z,4.57
2019-02-26T16:13:46.570Z,4.30
2019-02-26T16:16:15.918Z,4.43
2019-02-26T16:18:45.160Z,4.03
2019-02-26T16:21:14.375Z,6.60
2019-02-26T16:23:44.155Z,5.03
2019-02-26T16:26:13.460Z,4.90
2019-02-26T16:28:43.327Z,5.17
2019-02-26T16:31:13.228Z,4.30
2019-02-26T16:33:46.527Z,5.63
2019-02-26T16:36:14.110Z,5.37
2019-02-26T16:38:44.165Z,5.63
2019-02-26T16:41:13.455Z,6.97
2019-02-26T16:43:43.328Z,8.83
2019-02-26T16:46:12.650Z,6.03
2019-02-26T16:48:42.134Z,5.87
2019-02-26T16:51:11.954Z,5.80
2019-02-26T16:53:41.573Z,6.63
2019-02-26T16:56:11.705Z,11.20
2019-02-26T16:58:41.365Z,6.60
2019-02-26T17:01:11.387Z,8.37
2019-02-26T17:03:41.373Z,9.37
2019-02-26T17:06:10.886Z,7.50
2019-02-26T17:08:40.167Z,7.30
2019-02-26T17:11:13.300Z,7.50
2019-02-26T17:13:43.447Z,10.50
2019-02-26T17:16:12.465Z,6.23
2019-02-26T17:18:42.881Z,7.20
2019-02-26T17:21:13.356Z,7.20
2019-02-26T17:23:44.854Z,8.30
2019-02-26T17:26:14.921Z,8.17
2019-02-26T17:28:44.838Z,8.00
2019-02-26T17:31:14.753Z,11.13
2019-02-26T17:33:44.690Z,18.83
2019-02-26T17:36:14.925Z,11.07
2019-02-26T17:38:44.780Z,16.30
2019-02-26T17:41:14.714Z,14.53
2019-02-26T17:43:44.088Z,11.17
2019-02-26T17:46:13.285Z,6.83
2019-02-26T17:48:43.757Z,9.70
2019-02-26T17:51:13.815Z,9.17
2019-02-26T17:53:43.767Z,10.43
2019-02-26T17:56:13.093Z,12.53
2019-02-26T17:58:43.963Z,15.20
2019-02-26T18:01:14.672Z,12.03
2019-02-26T18:03:45.313Z,14.83
2019-02-26T18:06:14.937Z,13.07
2019-02-26T18:08:44.959Z,11.97
2019-02-26T18:11:14.260Z,8.67
2019-02-26T18:13:44.177Z,12.77
2019-02-26T18:16:14.142Z,11.13
2019-02-26T18:18:43.513Z,14.80
2019-02-26T18:21:13.376Z,12.77
2019-02-26T18:23:43.333Z,11.43
2019-02-26T18:26:12.719Z,14.17
2019-02-26T18:28:42.772Z,17.27
2019-02-26T18:31:12.061Z,12.63
2019-02-26T18:33:42.001Z,9.80
2019-02-26T18:36:12.170Z,14.83
2019-02-26T18:38:42.105Z,23.13
2019-02-26T18:41:12.019Z,16.47
2019-02-26T18:43:41.285Z,17.00
2019-02-26T18:46:10.546Z,13.67
2019-02-26T18:48:39.785Z,15.83
2019-02-26T18:51:09.274Z,12.67
2019-02-26T18:53:38.527Z,14.17
2019-02-26T18:56:08.005Z,15.97
2019-02-26T18:58:37.860Z,13.30
2019-02-26T19:01:07.837Z,17.63
2019-02-26T19:03:39.322Z,10.70
2019-02-26T19:06:09.379Z,22.53
2019-02-26T19:08:39.384Z,15.07
2019-02-26T19:11:10.050Z,14.60
2019-02-26T19:13:39.343Z,19.97
2019-02-26T19:16:09.217Z,15.10
2019-02-26T19:18:38.578Z,16.67
2019-02-26T19:21:08.526Z,12.63
2019-02-26T19:23:38.466Z,16.03
2019-02-26T19:26:08.405Z,24.53
2019-02-26T19:28:37.732Z,15.63
2019-02-26T19:31:09.360Z,14.83
2019-02-26T19:33:38.437Z,19.80
2019-02-26T19:36:07.901Z,17.67
2019-02-26T19:38:37.756Z,15.73
2019-02-26T19:41:12.446Z,19.47
2019-02-26T19:43:41.280Z,16.80
2019-02-26T19:46:11.167Z,18.23
2019-02-26T19:48:40.577Z,12.50
2019-02-26T19:51:10.437Z,16.87
2019-02-26T19:53:39.670Z,14.40
2019-02-26T19:56:09.471Z,17.37
2019-02-26T19:58:40.596Z,14.03
2019-02-26T20:01:10.338Z,14.03
2019-02-26T20:03:40.743Z,12.87
2019-02-26T20:06:10.790Z,14.27
2019-02-26T20:08:40.095Z,13.10
2019-02-26T20:11:10.183Z,12.60
2019-02-26T20:13:42.166Z,12.20
2019-02-26T20:16:11.070Z,15.37
2019-02-26T20:18:40.436Z,15.57
2019-02-26T20:21:10.300Z,10.03
2019-02-26T20:23:41.861Z,12.57
2019-02-26T20:26:16.160Z,11.67
2019-02-26T20:28:42.971Z,13.63
2019-02-26T20:31:12.925Z,16.20
2019-02-26T20:33:42.270Z,13.80
2019-02-26T20:36:11.507Z,13.30
2019-02-26T20:38:40.686Z,14.67
2019-02-26T20:41:10.546Z,13.03
2019-02-26T20:43:39.866Z,14.37
2019-02-26T20:46:09.685Z,16.30
2019-02-26T20:48:39.644Z,13.27
2019-02-26T20:51:08.854Z,10.63
2019-02-26T20:53:38.976Z,13.70
2019-02-26T20:56:08.968Z,11.83
2019-02-26T20:58:38.205Z,10.43
2019-02-26T21:01:07.367Z,10.10
2019-02-26T21:03:36.630Z,13.67
2019-02-26T21:06:06.852Z,11.33
2019-02-26T21:08:36.263Z,12.90
2019-02-26T21:11:06.112Z,14.00
2019-02-26T21:13:36.035Z,9.90
2019-02-26T21:16:05.495Z,10.13
2019-02-26T21:18:35.366Z,10.37
2019-02-26T21:21:04.709Z,8.00
2019-02-26T21:23:33.973Z,10.40
2019-02-26T21:26:03.401Z,9.23
2019-02-26T21:28:37.526Z,8.03
2019-02-26T21:31:07.513Z,12.83
2019-02-26T21:33:36.772Z,8.37
2019-02-26T21:36:06.504Z,7.60
2019-02-26T21:38:38.593Z,6.23
2019-02-26T21:41:06.686Z,10.30
2019-02-26T21:43:35.862Z,17.50
2019-02-26T21:46:05.643Z,8.73
2019-02-26T21:48:36.697Z,9.23
2019-02-26T21:51:06.893Z,7.37
2019-02-26T21:53:36.194Z,11.30
2019-02-26T21:56:06.015Z,9.37
2019-02-26T21:58:35.954Z,7.43
2019-02-26T22:01:05.254Z,7.33
2019-02-26T22:03:35.065Z,5.83
2019-02-26T22:06:05.488Z,9.97
2019-02-26T22:08:35.019Z,6.70
2019-02-26T22:11:04.886Z,8.73
2019-02-26T22:13:34.191Z,7.10
2019-02-26T22:16:04.033Z,7.80
2019-02-26T22:18:34.385Z,10.47
2019-02-26T22:21:03.683Z,8.67
2019-02-26T22:23:34.295Z,7.97
2019-02-26T22:26:04.736Z,8.50
2019-02-26T22:28:34.673Z,5.63
2019-02-26T22:31:04.499Z,5.93
2019-02-26T22:33:33.805Z,6.60
2019-02-26T22:36:03.189Z,6.80
2019-02-26T22:38:32.370Z,9.43
2019-02-26T22:41:02.292Z,6.77
2019-02-26T22:43:32.786Z,6.80
2019-02-26T22:46:02.040Z,6.37
2019-02-26T22:48:31.801Z,7.90
2019-02-26T22:51:01.022Z,6.77
2019-02-26T22:53:30.162Z,5.63
2019-02-26T22:56:00.073Z,6.87
2019-02-26T22:58:30.193Z,5.53
2019-02-26T23:01:30.304Z,8.67
2019-02-26T23:03:54.523Z,7.73
2019-02-26T23:06:23.833Z,5.87
2019-02-26T23:08:53.745Z,11.57
2019-02-26T23:11:23.670Z,11.20
2019-02-26T23:13:54.187Z,8.73
2019-02-26T23:16:23.790Z,10.07
2019-02-26T23:18:54.273Z,6.07
2019-02-26T23:21:23.984Z,7.87
2019-02-26T23:23:54.917Z,9.23
2019-02-26T23:26:24.353Z,7.83
2019-02-26T23:28:54.933Z,7.10
2019-02-26T23:31:24.781Z,5.33
2019-02-26T23:33:54.815Z,10.60
2019-02-26T23:36:25.751Z,7.90
2019-02-26T23:38:55.701Z,9.03
2019-02-26T23:41:25.544Z,8.33
2019-02-26T23:43:55.456Z,6.27
2019-02-26T23:46:24.762Z,5.80
2019-02-26T23:48:54.597Z,6.73
2019-02-26T23:51:24.529Z,7.03
2019-02-26T23:53:54.404Z,7.17
2019-02-26T23:56:23.773Z,7.20
2019-02-26T23:58:53.575Z,8.53
